sensor_id;sensor_type;location;lat;lon;timestamp;P1;durP1;ratioP1;P2;durP2;ratioP2
70924;SDS011;58577;52.410;13.242;2022-12-11T00:00:40;23.38;;;9.60;;
70924;SDS011;58577;52.410;13.242;2022-12-11T00:03:26;23.40;;;9.98;;
70924;SDS011;58577;52.410;13.242;2022-12-11T00:06:13;25.08;;;10.43;;
70924;SDS011;58577;52.410;13.242;2022-12-11T00:09:00;21.05;;;9.07;;
70924;SDS011;58577;52.410;13.242;2022-12-11T00:11:47;22.67;;;10.20;;
70924;SDS011;58577;52.410;13.242;2022-12-11T00:14:33;25.30;;;10.93;;
70924;SDS011;58577;52.410;13.242;2022-12-11T00:17:19;24.27;;;10.43;;
70924;SDS011;58577;52.410;13.242;2022-12-11T00:20:05;23.83;;;9.02;;
70924;SDS011;58577;52.410;13.242;2022-12-11T00:22:52;23.02;;;9.68;;
70924;SDS011;58577;52.410;13.242;2022-12-11T00:25:41;23.42;;;10.63;;
70924;SDS011;58577;52.410;13.242;2022-12-11T00:28:31;23.85;;;10.10;;
70924;SDS011;58577;52.410;13.242;2022-12-11T00:31:18;24.90;;;10.68;;
70924;SDS011;58577;52.410;13.242;2022-12-11T00:34:04;24.92;;;10.35;;
70924;SDS011;58577;52.410;13.242;2022-12-11T00:36:50;28.73;;;10.93;;
70924;SDS011;58577;52.410;13.242;2022-12-11T00:39:36;27.80;;;12.02;;
70924;SDS011;58577;52.410;13.242;2022-12-11T00:42:24;24.75;;;10.25;;
70924;SDS011;58577;52.410;13.242;2022-12-11T00:45:10;27.98;;;12.20;;
70924;SDS011;58577;52.410;13.242;2022-12-11T00:47:56;28.98;;;12.13;;
70924;SDS011;58577;52.410;13.242;2022-12-11T00:50:42;29.00;;;11.70;;
70924;SDS011;58577;52.410;13.242;2022-12-11T00:53:28;28.25;;;12.05;;
70924;SDS011;58577;52.410;13.242;2022-12-11T00:56:15;27.25;;;11.35;;
70924;SDS011;58577;52.410;13.242;2022-12-11T00:59:03;23.87;;;11.13;;
70924;SDS011;58577;52.410;13.242;2022-12-11T01:01:49;26.75;;;12.05;;
70924;SDS011;58577;52.410;13.242;2022-12-11T01:04:35;25.50;;;10.35;;
70924;SDS011;58577;52.410;13.242;2022-12-11T01:07:21;24.60;;;10.40;;
70924;SDS011;58577;52.410;13.242;2022-12-11T01:10:08;24.85;;;11.55;;
70924;SDS011;58577;52.410;13.242;2022-12-11T01:13:08;28.80;;;11.80;;
70924;SDS011;58577;52.410;13.242;2022-12-11T01:15:55;27.00;;;11.48;;
70924;SDS011;58577;52.410;13.242;2022-12-11T01:18:41;23.52;;;10.48;;
70924;SDS011;58577;52.410;13.242;2022-12-11T01:21:28;25.00;;;10.98;;
70924;SDS011;58577;52.410;13.242;2022-12-11T01:24:14;28.95;;;12.07;;
70924;SDS011;58577;52.410;13.242;2022-12-11T01:27:00;23.80;;;10.82;;
70924;SDS011;58577;52.410;13.242;2022-12-11T01:29:49;26.05;;;10.50;;
70924;SDS011;58577;52.410;13.242;2022-12-11T01:32:35;26.20;;;11.30;;
70924;SDS011;58577;52.410;13.242;2022-12-11T01:35:21;23.92;;;10.48;;
70924;SDS011;58577;52.410;13.242;2022-12-11T01:38:06;25.52;;;12.15;;
70924;SDS011;58577;52.410;13.242;2022-12-11T01:40:54;26.80;;;11.32;;
70924;SDS011;58577;52.410;13.242;2022-12-11T01:46:43;27.05;;;11.90;;
70924;SDS011;58577;52.410;13.242;2022-12-11T01:49:29;26.23;;;10.88;;
70924;SDS011;58577;52.410;13.242;2022-12-11T01:52:17;28.88;;;12.00;;
70924;SDS011;58577;52.410;13.242;2022-12-11T01:55:05;31.60;;;12.60;;
70924;SDS011;58577;52.410;13.242;2022-12-11T01:57:53;27.38;;;11.73;;
70924;SDS011;58577;52.410;13.242;2022-12-11T02:00:39;26.48;;;11.30;;
70924;SDS011;58577;52.410;13.242;2022-12-11T02:03:25;27.58;;;12.48;;
70924;SDS011;58577;52.410;13.242;2022-12-11T02:06:27;32.03;;;12.60;;
70924;SDS011;58577;52.410;13.242;2022-12-11T02:09:25;30.25;;;11.65;;
70924;SDS011;58577;52.410;13.242;2022-12-11T02:15:33;29.35;;;11.05;;
70924;SDS011;58577;52.410;13.242;2022-12-11T02:18:30;27.90;;;12.07;;
70924;SDS011;58577;52.410;13.242;2022-12-11T02:21:24;23.38;;;11.20;;
70924;SDS011;58577;52.410;13.242;2022-12-11T02:24:23;26.55;;;11.95;;
70924;SDS011;58577;52.410;13.242;2022-12-11T02:30:31;24.75;;;10.90;;
70924;SDS011;58577;52.410;13.242;2022-12-11T02:33:23;26.58;;;11.50;;
70924;SDS011;58577;52.410;13.242;2022-12-11T02:36:17;24.38;;;11.90;;
70924;SDS011;58577;52.410;13.242;2022-12-11T02:39:08;27.88;;;12.45;;
70924;SDS011;58577;52.410;13.242;2022-12-11T02:41:57;28.88;;;12.27;;
70924;SDS011;58577;52.410;13.242;2022-12-11T02:44:44;26.65;;;11.43;;
70924;SDS011;58577;52.410;13.242;2022-12-11T02:47:33;31.50;;;12.68;;
70924;SDS011;58577;52.410;13.242;2022-12-11T02:50:20;26.67;;;10.85;;
70924;SDS011;58577;52.410;13.242;2022-12-11T02:53:08;26.75;;;10.45;;
70924;SDS011;58577;52.410;13.242;2022-12-11T02:56:05;26.90;;;12.02;;
70924;SDS011;58577;52.410;13.242;2022-12-11T02:58:59;25.85;;;11.60;;
70924;SDS011;58577;52.410;13.242;2022-12-11T03:01:51;24.80;;;11.07;;
70924;SDS011;58577;52.410;13.242;2022-12-11T03:04:37;25.27;;;11.43;;
70924;SDS011;58577;52.410;13.242;2022-12-11T03:07:25;27.45;;;12.50;;
70924;SDS011;58577;52.410;13.242;2022-12-11T03:10:16;28.42;;;11.48;;
70924;SDS011;58577;52.410;13.242;2022-12-11T03:13:03;25.50;;;11.35;;
70924;SDS011;58577;52.410;13.242;2022-12-11T03:22:22;27.02;;;12.35;;
70924;SDS011;58577;52.410;13.242;2022-12-11T03:25:20;25.17;;;10.85;;
70924;SDS011;58577;52.410;13.242;2022-12-11T03:28:18;26.02;;;11.25;;
70924;SDS011;58577;52.410;13.242;2022-12-11T03:31:11;24.20;;;10.43;;
70924;SDS011;58577;52.410;13.242;2022-12-11T03:34:03;27.55;;;11.95;;
70924;SDS011;58577;52.410;13.242;2022-12-11T03:36:58;29.80;;;12.88;;
70924;SDS011;58577;52.410;13.242;2022-12-11T03:39:50;26.58;;;11.23;;
70924;SDS011;58577;52.410;13.242;2022-12-11T03:42:39;23.23;;;11.25;;
70924;SDS011;58577;52.410;13.242;2022-12-11T03:45:28;25.30;;;10.65;;
70924;SDS011;58577;52.410;13.242;2022-12-11T03:48:15;29.25;;;11.73;;
70924;SDS011;58577;52.410;13.242;2022-12-11T03:51:04;29.30;;;11.68;;
70924;SDS011;58577;52.410;13.242;2022-12-11T03:53:51;27.70;;;11.40;;
70924;SDS011;58577;52.410;13.242;2022-12-11T03:56:37;27.80;;;12.13;;
70924;SDS011;58577;52.410;13.242;2022-12-11T03:59:25;25.15;;;12.13;;
70924;SDS011;58577;52.410;13.242;2022-12-11T04:02:11;26.98;;;12.23;;
70924;SDS011;58577;52.410;13.242;2022-12-11T04:04:57;25.80;;;11.40;;
70924;SDS011;58577;52.410;13.242;2022-12-11T04:07:43;29.35;;;10.07;;
70924;SDS011;58577;52.410;13.242;2022-12-11T04:10:29;23.83;;;11.10;;
70924;SDS011;58577;52.410;13.242;2022-12-11T04:13:15;24.67;;;10.07;;
70924;SDS011;58577;52.410;13.242;2022-12-11T04:16:00;27.52;;;12.13;;
70924;SDS011;58577;52.410;13.242;2022-12-11T04:18:46;21.77;;;10.63;;
70924;SDS011;58577;52.410;13.242;2022-12-11T04:21:50;25.00;;;10.60;;
70924;SDS011;58577;52.410;13.242;2022-12-11T04:24:55;29.20;;;11.00;;
70924;SDS011;58577;52.410;13.242;2022-12-11T04:27:41;28.25;;;12.30;;
70924;SDS011;58577;52.410;13.242;2022-12-11T04:30:36;28.65;;;11.30;;
70924;SDS011;58577;52.410;13.242;2022-12-11T04:33:21;27.13;;;10.70;;
70924;SDS011;58577;52.410;13.242;2022-12-11T04:36:08;24.73;;;10.73;;
70924;SDS011;58577;52.410;13.242;2022-12-11T04:38:54;26.52;;;11.05;;
70924;SDS011;58577;52.410;13.242;2022-12-11T04:41:40;29.38;;;12.20;;
70924;SDS011;58577;52.410;13.242;2022-12-11T04:44:27;24.30;;;11.00;;
70924;SDS011;58577;52.410;13.242;2022-12-11T04:47:12;24.60;;;11.13;;
70924;SDS011;58577;52.410;13.242;2022-12-11T04:49:58;31.25;;;11.43;;
70924;SDS011;58577;52.410;13.242;2022-12-11T04:52:44;24.60;;;11.07;;
70924;SDS011;58577;52.410;13.242;2022-12-11T04:55:30;28.73;;;12.07;;
70924;SDS011;58577;52.410;13.242;2022-12-11T04:58:16;25.52;;;10.98;;
70924;SDS011;58577;52.410;13.242;2022-12-11T05:01:15;22.98;;;10.57;;
70924;SDS011;58577;52.410;13.242;2022-12-11T05:04:02;28.17;;;11.77;;
70924;SDS011;58577;52.410;13.242;2022-12-11T05:06:48;27.80;;;10.90;;
70924;SDS011;58577;52.410;13.242;2022-12-11T05:09:35;25.92;;;10.43;;
70924;SDS011;58577;52.410;13.242;2022-12-11T05:12:21;24.55;;;10.98;;
70924;SDS011;58577;52.410;13.242;2022-12-11T05:15:07;25.92;;;11.23;;
70924;SDS011;58577;52.410;13.242;2022-12-11T05:17:53;25.67;;;11.43;;
70924;SDS011;58577;52.410;13.242;2022-12-11T05:20:38;25.20;;;11.27;;
70924;SDS011;58577;52.410;13.242;2022-12-11T05:23:25;28.02;;;11.98;;
70924;SDS011;58577;52.410;13.242;2022-12-11T05:26:12;24.90;;;10.68;;
70924;SDS011;58577;52.410;13.242;2022-12-11T05:29:00;25.13;;;10.95;;
70924;SDS011;58577;52.410;13.242;2022-12-11T05:31:46;25.67;;;10.82;;
70924;SDS011;58577;52.410;13.242;2022-12-11T05:34:32;24.60;;;10.32;;
70924;SDS011;58577;52.410;13.242;2022-12-11T05:37:18;24.85;;;9.95;;
70924;SDS011;58577;52.410;13.242;2022-12-11T05:40:04;26.92;;;11.13;;
70924;SDS011;58577;52.410;13.242;2022-12-11T05:42:50;25.00;;;10.75;;
70924;SDS011;58577;52.410;13.242;2022-12-11T05:45:36;29.50;;;11.65;;
70924;SDS011;58577;52.410;13.242;2022-12-11T05:48:22;27.25;;;11.25;;
70924;SDS011;58577;52.410;13.242;2022-12-11T05:51:08;25.50;;;10.35;;
70924;SDS011;58577;52.410;13.242;2022-12-11T05:53:55;31.80;;;12.32;;
70924;SDS011;58577;52.410;13.242;2022-12-11T05:56:42;32.25;;;11.75;;
70924;SDS011;58577;52.410;13.242;2022-12-11T05:59:28;27.92;;;11.18;;
70924;SDS011;58577;52.410;13.242;2022-12-11T06:02:14;29.75;;;11.07;;
70924;SDS011;58577;52.410;13.242;2022-12-11T06:05:00;28.83;;;11.50;;
70924;SDS011;58577;52.410;13.242;2022-12-11T06:07:46;28.90;;;12.50;;
70924;SDS011;58577;52.410;13.242;2022-12-11T06:10:32;21.20;;;9.05;;
70924;SDS011;58577;52.410;13.242;2022-12-11T06:13:18;29.20;;;11.30;;
70924;SDS011;58577;52.410;13.242;2022-12-11T06:16:04;25.42;;;11.52;;
70924;SDS011;58577;52.410;13.242;2022-12-11T06:18:52;25.05;;;10.23;;
70924;SDS011;58577;52.410;13.242;2022-12-11T06:21:38;25.38;;;10.90;;
70924;SDS011;58577;52.410;13.242;2022-12-11T06:24:24;26.85;;;11.30;;
70924;SDS011;58577;52.410;13.242;2022-12-11T06:27:10;29.50;;;11.38;;
70924;SDS011;58577;52.410;13.242;2022-12-11T06:29:56;26.02;;;11.05;;
70924;SDS011;58577;52.410;13.242;2022-12-11T06:32:42;26.25;;;11.68;;
70924;SDS011;58577;52.410;13.242;2022-12-11T06:35:28;26.27;;;11.27;;
70924;SDS011;58577;52.410;13.242;2022-12-11T06:38:14;26.38;;;11.07;;
70924;SDS011;58577;52.410;13.242;2022-12-11T06:41:01;27.95;;;11.32;;
70924;SDS011;58577;52.410;13.242;2022-12-11T06:43:49;29.75;;;11.35;;
70924;SDS011;58577;52.410;13.242;2022-12-11T06:46:35;25.35;;;11.40;;
70924;SDS011;58577;52.410;13.242;2022-12-11T06:49:21;28.90;;;10.75;;
70924;SDS011;58577;52.410;13.242;2022-12-11T06:52:07;25.98;;;11.48;;
70924;SDS011;58577;52.410;13.242;2022-12-11T06:54:53;30.17;;;13.27;;
70924;SDS011;58577;52.410;13.242;2022-12-11T06:57:39;29.92;;;13.25;;
70924;SDS011;58577;52.410;13.242;2022-12-11T07:00:25;28.73;;;11.65;;
70924;SDS011;58577;52.410;13.242;2022-12-11T07:03:11;33.40;;;12.27;;
70924;SDS011;58577;52.410;13.242;2022-12-11T07:05:59;27.13;;;11.88;;
70924;SDS011;58577;52.410;13.242;2022-12-11T07:08:45;32.70;;;12.35;;
70924;SDS011;58577;52.410;13.242;2022-12-11T07:11:31;29.73;;;12.32;;
70924;SDS011;58577;52.410;13.242;2022-12-11T07:14:18;31.38;;;12.85;;
70924;SDS011;58577;52.410;13.242;2022-12-11T07:17:04;35.75;;;13.50;;
70924;SDS011;58577;52.410;13.242;2022-12-11T07:19:50;28.05;;;11.48;;
70924;SDS011;58577;52.410;13.242;2022-12-11T07:22:36;27.98;;;12.05;;
70924;SDS011;58577;52.410;13.242;2022-12-11T07:25:22;32.67;;;12.75;;
70924;SDS011;58577;52.410;13.242;2022-12-11T07:28:08;35.70;;;12.23;;
70924;SDS011;58577;52.410;13.242;2022-12-11T07:30:54;29.42;;;12.13;;
70924;SDS011;58577;52.410;13.242;2022-12-11T07:33:40;27.05;;;11.05;;
70924;SDS011;58577;52.410;13.242;2022-12-11T07:36:27;29.23;;;11.90;;
70924;SDS011;58577;52.410;13.242;2022-12-11T07:39:14;25.60;;;10.77;;
70924;SDS011;58577;52.410;13.242;2022-12-11T07:42:00;27.67;;;12.15;;
70924;SDS011;58577;52.410;13.242;2022-12-11T07:44:46;26.75;;;12.57;;
70924;SDS011;58577;52.410;13.242;2022-12-11T07:47:32;28.00;;;12.05;;
70924;SDS011;58577;52.410;13.242;2022-12-11T07:50:18;31.20;;;11.50;;
70924;SDS011;58577;52.410;13.242;2022-12-11T07:53:04;32.78;;;12.20;;
70924;SDS011;58577;52.410;13.242;2022-12-11T07:55:50;29.50;;;11.82;;
70924;SDS011;58577;52.410;13.242;2022-12-11T07:58:36;27.17;;;11.15;;
70924;SDS011;58577;52.410;13.242;2022-12-11T08:01:24;25.33;;;10.93;;
70924;SDS011;58577;52.410;13.242;2022-12-11T08:04:11;26.00;;;11.18;;
70924;SDS011;58577;52.410;13.242;2022-12-11T08:06:59;25.60;;;10.43;;
70924;SDS011;58577;52.410;13.242;2022-12-11T08:09:46;24.67;;;10.57;;
70924;SDS011;58577;52.410;13.242;2022-12-11T08:12:32;23.65;;;9.60;;
70924;SDS011;58577;52.410;13.242;2022-12-11T08:15:18;24.42;;;10.82;;
70924;SDS011;58577;52.410;13.242;2022-12-11T08:18:04;23.00;;;9.20;;
70924;SDS011;58577;52.410;13.242;2022-12-11T08:20:50;23.58;;;9.85;;
70924;SDS011;58577;52.410;13.242;2022-12-11T08:23:36;23.42;;;10.10;;
70924;SDS011;58577;52.410;13.242;2022-12-11T08:26:24;22.83;;;9.88;;
70924;SDS011;58577;52.410;13.242;2022-12-11T08:29:14;21.77;;;9.55;;
70924;SDS011;58577;52.410;13.242;2022-12-11T08:32:00;22.50;;;10.07;;
70924;SDS011;58577;52.410;13.242;2022-12-11T08:34:46;21.88;;;9.52;;
70924;SDS011;58577;52.410;13.242;2022-12-11T08:37:32;25.48;;;9.70;;
70924;SDS011;58577;52.410;13.242;2022-12-11T08:40:18;25.25;;;10.23;;
70924;SDS011;58577;52.410;13.242;2022-12-11T08:43:04;21.13;;;9.02;;
70924;SDS011;58577;52.410;13.242;2022-12-11T08:45:51;19.77;;;8.90;;
70924;SDS011;58577;52.410;13.242;2022-12-11T08:48:38;20.02;;;9.00;;
70924;SDS011;58577;52.410;13.242;2022-12-11T08:51:25;22.70;;;9.32;;
70924;SDS011;58577;52.410;13.242;2022-12-11T08:54:12;24.77;;;10.90;;
70924;SDS011;58577;52.410;13.242;2022-12-11T08:56:58;19.33;;;8.63;;
70924;SDS011;58577;52.410;13.242;2022-12-11T08:59:44;24.48;;;9.60;;
70924;SDS011;58577;52.410;13.242;2022-12-11T09:02:30;19.95;;;8.15;;
70924;SDS011;58577;52.410;13.242;2022-12-11T09:05:16;19.58;;;7.90;;
70924;SDS011;58577;52.410;13.242;2022-12-11T09:08:04;20.35;;;9.00;;
70924;SDS011;58577;52.410;13.242;2022-12-11T09:10:51;24.90;;;9.20;;
70924;SDS011;58577;52.410;13.242;2022-12-11T09:13:37;24.92;;;9.63;;
70924;SDS011;58577;52.410;13.242;2022-12-11T09:16:24;22.50;;;9.60;;
70924;SDS011;58577;52.410;13.242;2022-12-11T09:19:12;24.42;;;9.57;;
70924;SDS011;58577;52.410;13.242;2022-12-11T09:21:59;18.70;;;7.95;;
70924;SDS011;58577;52.410;13.242;2022-12-11T09:24:45;22.63;;;9.10;;
70924;SDS011;58577;52.410;13.242;2022-12-11T09:27:32;20.92;;;8.77;;
70924;SDS011;58577;52.410;13.242;2022-12-11T09:30:18;19.65;;;8.40;;
70924;SDS011;58577;52.410;13.242;2022-12-11T09:33:04;20.13;;;9.00;;
70924;SDS011;58577;52.410;13.242;2022-12-11T09:35:56;24.40;;;10.48;;
70924;SDS011;58577;52.410;13.242;2022-12-11T09:38:43;19.77;;;8.93;;
70924;SDS011;58577;52.410;13.242;2022-12-11T09:44:51;23.15;;;9.05;;
70924;SDS011;58577;52.410;13.242;2022-12-11T09:47:51;18.02;;;7.80;;
70924;SDS011;58577;52.410;13.242;2022-12-11T09:50:40;18.90;;;8.57;;
70924;SDS011;58577;52.410;13.242;2022-12-11T09:53:31;20.15;;;9.52;;
70924;SDS011;58577;52.410;13.242;2022-12-11T09:56:26;22.17;;;8.20;;
70924;SDS011;58577;52.410;13.242;2022-12-11T10:03:09;20.00;;;7.30;;
70924;SDS011;58577;52.410;13.242;2022-12-11T10:06:35;20.65;;;8.10;;
70924;SDS011;58577;52.410;13.242;2022-12-11T10:13:00;20.75;;;9.13;;
70924;SDS011;58577;52.410;13.242;2022-12-11T10:15:58;21.60;;;8.85;;
70924;SDS011;58577;52.410;13.242;2022-12-11T10:18:50;21.98;;;8.10;;
70924;SDS011;58577;52.410;13.242;2022-12-11T10:21:40;24.98;;;8.75;;
70924;SDS011;58577;52.410;13.242;2022-12-11T10:24:36;22.25;;;8.15;;
70924;SDS011;58577;52.410;13.242;2022-12-11T10:27:30;21.42;;;8.50;;
70924;SDS011;58577;52.410;13.242;2022-12-11T10:30:19;20.90;;;9.02;;
70924;SDS011;58577;52.410;13.242;2022-12-11T10:35:56;20.92;;;8.50;;
70924;SDS011;58577;52.410;13.242;2022-12-11T10:38:43;21.17;;;7.75;;
70924;SDS011;58577;52.410;13.242;2022-12-11T10:41:36;23.33;;;8.75;;
70924;SDS011;58577;52.410;13.242;2022-12-11T10:44:28;21.15;;;9.25;;
70924;SDS011;58577;52.410;13.242;2022-12-11T10:47:18;23.00;;;8.75;;
70924;SDS011;58577;52.410;13.242;2022-12-11T10:50:03;17.83;;;7.82;;
70924;SDS011;58577;52.410;13.242;2022-12-11T10:52:50;25.88;;;9.38;;
70924;SDS011;58577;52.410;13.242;2022-12-11T10:55:43;21.83;;;9.55;;
70924;SDS011;58577;52.410;13.242;2022-12-11T10:58:31;23.58;;;9.70;;
70924;SDS011;58577;52.410;13.242;2022-12-11T11:01:23;22.08;;;8.25;;
70924;SDS011;58577;52.410;13.242;2022-12-11T11:04:18;18.73;;;7.38;;
70924;SDS011;58577;52.410;13.242;2022-12-11T11:12:59;21.65;;;8.65;;
70924;SDS011;58577;52.410;13.242;2022-12-11T11:15:46;18.20;;;8.70;;
70924;SDS011;58577;52.410;13.242;2022-12-11T11:18:36;19.45;;;8.10;;
70924;SDS011;58577;52.410;13.242;2022-12-11T11:21:30;19.52;;;8.35;;
70924;SDS011;58577;52.410;13.242;2022-12-11T11:24:40;20.20;;;8.73;;
70924;SDS011;58577;52.410;13.242;2022-12-11T11:27:48;20.60;;;8.35;;
70924;SDS011;58577;52.410;13.242;2022-12-11T11:31:25;18.23;;;7.90;;
70924;SDS011;58577;52.410;13.242;2022-12-11T11:34:18;20.40;;;8.23;;
70924;SDS011;58577;52.410;13.242;2022-12-11T11:37:27;18.73;;;7.80;;
70924;SDS011;58577;52.410;13.242;2022-12-11T11:40:32;21.52;;;8.32;;
70924;SDS011;58577;52.410;13.242;2022-12-11T11:43:50;18.83;;;8.60;;
70924;SDS011;58577;52.410;13.242;2022-12-11T11:46:52;21.65;;;8.25;;
70924;SDS011;58577;52.410;13.242;2022-12-11T11:49:51;20.23;;;8.73;;
70924;SDS011;58577;52.410;13.242;2022-12-11T11:52:49;20.70;;;8.05;;
70924;SDS011;58577;52.410;13.242;2022-12-11T12:01:47;19.48;;;8.80;;
70924;SDS011;58577;52.410;13.242;2022-12-11T12:04:34;20.90;;;7.93;;
70924;SDS011;58577;52.410;13.242;2022-12-11T12:13:06;20.80;;;8.13;;
70924;SDS011;58577;52.410;13.242;2022-12-11T12:16:01;21.77;;;8.43;;
70924;SDS011;58577;52.410;13.242;2022-12-11T12:19:06;19.27;;;8.55;;
70924;SDS011;58577;52.410;13.242;2022-12-11T12:22:04;19.95;;;8.52;;
70924;SDS011;58577;52.410;13.242;2022-12-11T12:31:49;21.73;;;7.95;;
70924;SDS011;58577;52.410;13.242;2022-12-11T12:35:32;22.10;;;8.93;;
70924;SDS011;58577;52.410;13.242;2022-12-11T12:38:09;22.02;;;9.40;;
70924;SDS011;58577;52.410;13.242;2022-12-11T12:41:00;21.33;;;8.90;;
70924;SDS011;58577;52.410;13.242;2022-12-11T12:44:15;22.77;;;8.63;;
70924;SDS011;58577;52.410;13.242;2022-12-11T12:47:04;23.25;;;8.30;;
70924;SDS011;58577;52.410;13.242;2022-12-11T12:49:57;21.45;;;9.38;;
70924;SDS011;58577;52.410;13.242;2022-12-11T12:52:45;19.40;;;8.43;;
70924;SDS011;58577;52.410;13.242;2022-12-11T12:55:33;22.23;;;9.60;;
70924;SDS011;58577;52.410;13.242;2022-12-11T12:59:02;20.80;;;7.65;;
70924;SDS011;58577;52.410;13.242;2022-12-11T13:01:30;23.00;;;9.20;;
70924;SDS011;58577;52.410;13.242;2022-12-11T13:07:26;20.92;;;8.52;;
70924;SDS011;58577;52.410;13.242;2022-12-11T13:10:31;21.85;;;8.82;;
70924;SDS011;58577;52.410;13.242;2022-12-11T13:13:32;22.73;;;9.75;;
70924;SDS011;58577;52.410;13.242;2022-12-11T13:16:23;24.17;;;9.52;;
70924;SDS011;58577;52.410;13.242;2022-12-11T13:19:29;24.70;;;8.38;;
70924;SDS011;58577;52.410;13.242;2022-12-11T13:22:22;22.38;;;9.90;;
70924;SDS011;58577;52.410;13.242;2022-12-11T13:26:10;21.83;;;8.77;;
70924;SDS011;58577;52.410;13.242;2022-12-11T13:31:32;25.08;;;8.80;;
70924;SDS011;58577;52.410;13.242;2022-12-11T13:34:21;19.95;;;8.68;;
70924;SDS011;58577;52.410;13.242;2022-12-11T13:40:08;21.05;;;8.65;;
70924;SDS011;58577;52.410;13.242;2022-12-11T13:43:45;21.50;;;8.98;;
70924;SDS011;58577;52.410;13.242;2022-12-11T13:46:13;22.73;;;8.57;;
70924;SDS011;58577;52.410;13.242;2022-12-11T13:49:04;23.88;;;9.10;;
70924;SDS011;58577;52.410;13.242;2022-12-11T13:51:53;22.08;;;8.13;;
70924;SDS011;58577;52.410;13.242;2022-12-11T13:54:45;24.45;;;9.32;;
70924;SDS011;58577;52.410;13.242;2022-12-11T13:57:33;21.58;;;8.82;;
70924;SDS011;58577;52.410;13.242;2022-12-11T14:00:29;21.52;;;8.15;;
70924;SDS011;58577;52.410;13.242;2022-12-11T14:03:17;20.00;;;7.10;;
70924;SDS011;58577;52.410;13.242;2022-12-11T14:06:03;23.40;;;9.00;;
70924;SDS011;58577;52.410;13.242;2022-12-11T14:08:54;25.30;;;10.25;;
70924;SDS011;58577;52.410;13.242;2022-12-11T14:11:44;20.48;;;8.32;;
70924;SDS011;58577;52.410;13.242;2022-12-11T14:14:39;26.15;;;9.77;;
70924;SDS011;58577;52.410;13.242;2022-12-11T14:17:29;21.75;;;8.63;;
70924;SDS011;58577;52.410;13.242;2022-12-11T14:23:19;19.95;;;8.50;;
70924;SDS011;58577;52.410;13.242;2022-12-11T14:26:17;20.90;;;8.52;;
70924;SDS011;58577;52.410;13.242;2022-12-11T14:29:05;23.63;;;9.15;;
70924;SDS011;58577;52.410;13.242;2022-12-11T14:31:51;25.67;;;9.35;;
70924;SDS011;58577;52.410;13.242;2022-12-11T14:34:41;23.02;;;9.80;;
70924;SDS011;58577;52.410;13.242;2022-12-11T14:37:30;24.90;;;10.13;;
70924;SDS011;58577;52.410;13.242;2022-12-11T14:40:19;26.20;;;10.00;;
70924;SDS011;58577;52.410;13.242;2022-12-11T14:43:17;23.73;;;10.40;;
70924;SDS011;58577;52.410;13.242;2022-12-11T14:46:09;21.35;;;9.82;;
70924;SDS011;58577;52.410;13.242;2022-12-11T14:49:02;23.88;;;10.43;;
70924;SDS011;58577;52.410;13.242;2022-12-11T14:51:57;23.85;;;9.55;;
70924;SDS011;58577;52.410;13.242;2022-12-11T14:54:46;21.17;;;9.07;;
70924;SDS011;58577;52.410;13.242;2022-12-11T14:57:38;23.67;;;9.80;;
70924;SDS011;58577;52.410;13.242;2022-12-11T15:00:32;20.58;;;10.07;;
70924;SDS011;58577;52.410;13.242;2022-12-11T15:03:23;26.20;;;10.43;;
70924;SDS011;58577;52.410;13.242;2022-12-11T15:06:21;25.65;;;10.40;;
70924;SDS011;58577;52.410;13.242;2022-12-11T15:12:15;22.48;;;9.57;;
70924;SDS011;58577;52.410;13.242;2022-12-11T15:15:03;25.73;;;10.43;;
70924;SDS011;58577;52.410;13.242;2022-12-11T15:17:53;24.38;;;10.40;;
70924;SDS011;58577;52.410;13.242;2022-12-11T15:20:40;25.98;;;10.43;;
70924;SDS011;58577;52.410;13.242;2022-12-11T15:23:26;23.90;;;9.65;;
70924;SDS011;58577;52.410;13.242;2022-12-11T15:26:13;22.25;;;9.32;;
70924;SDS011;58577;52.410;13.242;2022-12-11T15:29:00;22.02;;;10.45;;
70924;SDS011;58577;52.410;13.242;2022-12-11T15:31:57;25.10;;;10.10;;
70924;SDS011;58577;52.410;13.242;2022-12-11T15:35:21;24.88;;;10.85;;
70924;SDS011;58577;52.410;13.242;2022-12-11T15:38:23;23.10;;;10.02;;
70924;SDS011;58577;52.410;13.242;2022-12-11T15:41:18;26.30;;;10.65;;
70924;SDS011;58577;52.410;13.242;2022-12-11T15:44:29;26.25;;;9.32;;
70924;SDS011;58577;52.410;13.242;2022-12-11T15:47:34;21.20;;;8.60;;
70924;SDS011;58577;52.410;13.242;2022-12-11T15:50:23;20.38;;;9.25;;
70924;SDS011;58577;52.410;13.242;2022-12-11T15:53:11;26.42;;;10.13;;
70924;SDS011;58577;52.410;13.242;2022-12-11T15:56:03;23.83;;;9.68;;
70924;SDS011;58577;52.410;13.242;2022-12-11T15:58:49;26.85;;;10.60;;
70924;SDS011;58577;52.410;13.242;2022-12-11T16:01:38;26.42;;;11.27;;
70924;SDS011;58577;52.410;13.242;2022-12-11T16:04:24;22.83;;;9.93;;
70924;SDS011;58577;52.410;13.242;2022-12-11T16:07:17;22.42;;;9.23;;
70924;SDS011;58577;52.410;13.242;2022-12-11T16:10:11;25.85;;;10.50;;
70924;SDS011;58577;52.410;13.242;2022-12-11T16:13:00;25.30;;;9.60;;
70924;SDS011;58577;52.410;13.242;2022-12-11T16:15:47;24.88;;;11.43;;
70924;SDS011;58577;52.410;13.242;2022-12-11T16:18:37;24.90;;;10.65;;
70924;SDS011;58577;52.410;13.242;2022-12-11T16:21:24;26.17;;;10.60;;
70924;SDS011;58577;52.410;13.242;2022-12-11T16:24:17;24.65;;;9.82;;
70924;SDS011;58577;52.410;13.242;2022-12-11T16:27:03;25.08;;;11.15;;
70924;SDS011;58577;52.410;13.242;2022-12-11T16:29:51;27.83;;;11.52;;
70924;SDS011;58577;52.410;13.242;2022-12-11T16:32:38;25.15;;;10.43;;
70924;SDS011;58577;52.410;13.242;2022-12-11T16:35:24;26.40;;;10.88;;
70924;SDS011;58577;52.410;13.242;2022-12-11T16:38:10;24.90;;;11.27;;
70924;SDS011;58577;52.410;13.242;2022-12-11T16:41:17;25.10;;;10.95;;
70924;SDS011;58577;52.410;13.242;2022-12-11T16:44:18;24.75;;;9.60;;
70924;SDS011;58577;52.410;13.242;2022-12-11T16:47:12;26.45;;;11.65;;
70924;SDS011;58577;52.410;13.242;2022-12-11T16:49:58;26.73;;;11.27;;
70924;SDS011;58577;52.410;13.242;2022-12-11T16:52:53;28.38;;;11.82;;
70924;SDS011;58577;52.410;13.242;2022-12-11T16:55:47;28.25;;;11.68;;
70924;SDS011;58577;52.410;13.242;2022-12-11T17:05:49;27.30;;;11.65;;
70924;SDS011;58577;52.410;13.242;2022-12-11T17:11:46;29.52;;;12.43;;
70924;SDS011;58577;52.410;13.242;2022-12-11T17:14:41;26.95;;;12.15;;
70924;SDS011;58577;52.410;13.242;2022-12-11T17:17:27;29.67;;;11.65;;
70924;SDS011;58577;52.410;13.242;2022-12-11T17:20:14;27.98;;;11.70;;
70924;SDS011;58577;52.410;13.242;2022-12-11T17:23:00;27.38;;;11.65;;
70924;SDS011;58577;52.410;13.242;2022-12-11T17:25:47;27.02;;;11.07;;
70924;SDS011;58577;52.410;13.242;2022-12-11T17:28:33;26.98;;;11.25;;
70924;SDS011;58577;52.410;13.242;2022-12-11T17:31:20;24.95;;;10.93;;
70924;SDS011;58577;52.410;13.242;2022-12-11T17:34:07;26.73;;;10.48;;
70924;SDS011;58577;52.410;13.242;2022-12-11T17:37:03;26.33;;;11.48;;
70924;SDS011;58577;52.410;13.242;2022-12-11T17:40:02;27.85;;;11.73;;
70924;SDS011;58577;52.410;13.242;2022-12-11T17:43:03;25.30;;;10.18;;
70924;SDS011;58577;52.410;13.242;2022-12-11T17:49:53;26.23;;;10.65;;